createdAt,value
2018-02-03T00:02:05.693Z,86.90
2018-02-03T00:04:33.967Z,86.90
2018-02-03T00:07:02.252Z,86.70
2018-02-03T00:09:31.325Z,86.90
2018-02-03T00:12:00.350Z,87.30
2018-02-03T00:14:28.681Z,87.30
2018-02-03T00:16:56.963Z,87.10
2018-02-03T00:19:25.984Z,86.90
2018-02-03T00:21:55.105Z,87.10
2018-02-03T00:24:23.374Z,87.10
2018-02-03T00:26:51.607Z,87.20
2018-02-03T00:29:20.591Z,87.20
2018-02-03T00:31:48.950Z,87.10
2018-02-03T00:34:17.145Z,87.30
2018-02-03T00:36:45.440Z,87.30
2018-02-03T00:39:14.536Z,87.00
2018-02-03T00:41:43.501Z,87.20
2018-02-03T00:44:11.722Z,87.10
2018-02-03T00:46:39.972Z,87.70
2018-02-03T00:49:08.936Z,87.60
2018-02-03T00:51:37.180Z,87.70
2018-02-03T00:54:05.620Z,87.30
2018-02-03T00:56:34.701Z,87.70
2018-02-03T00:59:02.922Z,87.70
2018-02-03T01:01:31.168Z,87.80
2018-02-03T01:04:01.428Z,87.60
2018-02-03T01:06:29.664Z,87.60
2018-02-03T01:08:58.641Z,87.30
2018-02-03T01:11:26.832Z,87.40
2018-02-03T01:13:55.841Z,87.20
2018-02-03T01:16:24.831Z,87.60
2018-02-03T01:18:53.995Z,87.30
2018-02-03T01:21:22.380Z,87.30
2018-02-03T01:23:50.579Z,87.30
2018-02-03T01:26:19.544Z,87.40
2018-02-03T01:28:47.787Z,87.40
2018-02-03T01:31:15.992Z,87.20
2018-02-03T01:33:44.196Z,87.00
2018-02-03T01:36:13.212Z,87.10
2018-02-03T01:38:41.470Z,87.20
2018-02-03T01:41:10.428Z,86.70
2018-02-03T01:43:38.853Z,86.80
2018-02-03T01:46:07.103Z,87.00
2018-02-03T01:48:36.116Z,87.60
2018-02-03T01:51:05.081Z,87.60
2018-02-03T01:53:33.281Z,87.60
2018-02-03T01:56:01.487Z,87.60
2018-02-03T01:58:29.788Z,86.90
2018-02-03T02:00:57.980Z,86.90
2018-02-03T02:03:26.222Z,87.00
2018-02-03T02:05:55.564Z,87.10
2018-02-03T02:08:23.821Z,87.10
2018-02-03T02:10:52.085Z,87.30
2018-02-03T02:13:20.310Z,87.20
2018-02-03T02:15:49.280Z,86.60
2018-02-03T02:18:17.500Z,86.70
2018-02-03T02:20:45.716Z,86.30
2018-02-03T02:23:13.907Z,86.20
2018-02-03T02:25:42.104Z,86.90
2018-02-03T02:28:10.402Z,86.40
2018-02-03T02:30:38.698Z,86.10
2018-02-03T02:33:06.884Z,86.40
2018-02-03T02:35:35.127Z,86.30
2018-02-03T02:38:03.332Z,86.60
2018-02-03T02:40:31.521Z,86.10
2018-02-03T02:42:59.748Z,86.30
2018-02-03T02:45:28.268Z,86.00
2018-02-03T02:47:56.469Z,86.20
2018-02-03T02:50:24.760Z,85.60
2018-02-03T02:52:53.728Z,86.80
2018-02-03T02:55:22.049Z,86.80
2018-02-03T02:57:50.280Z,85.80
2018-02-03T03:00:18.502Z,85.50
2018-02-03T03:02:46.727Z,85.60
2018-02-03T03:05:14.956Z,86.10
2018-02-03T03:07:45.668Z,85.30
2018-02-03T03:10:14.708Z,85.30
2018-02-03T03:12:42.941Z,85.30
2018-02-03T03:15:11.142Z,85.40
2018-02-03T03:17:39.743Z,85.80
2018-02-03T03:20:07.988Z,85.10
2018-02-03T03:22:36.504Z,84.90
2018-02-03T03:25:04.713Z,85.70
2018-02-03T03:27:33.721Z,85.10
2018-02-03T03:30:02.752Z,85.20
2018-02-03T03:32:30.976Z,85.20
2018-02-03T03:34:59.244Z,84.60
2018-02-03T03:37:27.443Z,85.10
2018-02-03T03:39:55.665Z,84.80
2018-02-03T03:42:23.910Z,84.40
2018-02-03T03:44:52.104Z,84.60
2018-02-03T03:47:20.307Z,84.90
2018-02-03T03:49:48.556Z,85.00
2018-02-03T03:52:16.768Z,85.20
2018-02-03T03:54:44.996Z,85.30
2018-02-03T03:57:13.280Z,86.10
2018-02-03T03:59:41.612Z,85.10
2018-02-03T04:02:10.606Z,84.70
2018-02-03T04:07:13.651Z,84.00
2018-02-03T04:09:42.105Z,84.10
2018-02-03T04:12:10.312Z,82.70
2018-02-03T04:14:38.599Z,82.80
2018-02-03T04:17:06.840Z,83.50
2018-02-03T04:19:35.046Z,83.90
2018-02-03T04:22:03.303Z,82.90
2018-02-03T04:24:31.495Z,82.10
2018-02-03T04:26:59.710Z,82.50
2018-02-03T04:29:28.039Z,83.10
2018-02-03T04:31:56.242Z,83.80
2018-02-03T04:34:24.434Z,83.20
2018-02-03T04:36:52.716Z,83.20
2018-02-03T04:39:21.710Z,84.50
2018-02-03T04:41:49.896Z,84.50
2018-02-03T04:44:18.897Z,84.60
2018-02-03T04:46:47.106Z,84.60
2018-02-03T04:49:15.317Z,84.60
2018-02-03T04:51:43.544Z,85.40
2018-02-03T04:54:11.789Z,85.20
2018-02-03T04:56:40.892Z,85.20
2018-02-03T04:59:09.191Z,85.10
2018-02-03T05:01:37.440Z,85.40
2018-02-03T05:04:05.652Z,85.60
2018-02-03T05:06:33.916Z,85.80
2018-02-03T05:09:02.192Z,85.30
2018-02-03T05:11:30.482Z,86.00
2018-02-03T05:13:58.713Z,85.80
2018-02-03T05:16:27.680Z,85.90
2018-02-03T05:18:55.995Z,85.90
2018-02-03T05:21:24.231Z,86.00
2018-02-03T05:23:52.431Z,85.80
2018-02-03T05:28:52.156Z,85.70
2018-02-03T05:31:21.278Z,85.50
2018-02-03T05:33:49.560Z,85.50
2018-02-03T05:36:17.792Z,86.00
2018-02-03T05:38:46.003Z,86.20
2018-02-03T05:41:14.205Z,86.00
2018-02-03T05:43:43.656Z,86.30
2018-02-03T05:46:13.140Z,85.70
2018-02-03T05:48:41.436Z,85.70
2018-02-03T05:51:10.432Z,85.00
2018-02-03T05:53:39.432Z,84.90
2018-02-03T05:56:07.688Z,84.90
2018-02-03T05:58:35.921Z,84.60
2018-02-03T06:01:04.122Z,84.60
2018-02-03T06:03:32.357Z,85.30
2018-02-03T06:06:00.649Z,85.70
2018-02-03T06:08:29.268Z,85.90
2018-02-03T06:10:57.482Z,85.10
2018-02-03T06:13:25.848Z,86.30
2018-02-03T06:15:54.964Z,86.50
2018-02-03T06:18:23.184Z,86.40
2018-02-03T06:20:51.456Z,86.10
2018-02-03T06:23:19.666Z,86.80
2018-02-03T06:25:48.632Z,87.60
2018-02-03T06:28:16.908Z,87.60
2018-02-03T06:30:45.133Z,87.80
2018-02-03T06:33:14.125Z,88.30
2018-02-03T06:35:42.824Z,88.30
2018-02-03T06:38:11.249Z,89.00
2018-02-03T06:40:39.457Z,89.20
2018-02-03T06:43:08.604Z,89.50
2018-02-03T06:45:36.804Z,89.50
2018-02-03T06:48:05.045Z,89.70
2018-02-03T06:50:34.369Z,90.00
2018-02-03T06:53:03.400Z,90.30
2018-02-03T06:55:32.093Z,90.30
2018-02-03T06:58:01.077Z,90.50
2018-02-03T07:00:29.439Z,90.40
2018-02-03T07:02:57.665Z,90.50
2018-02-03T07:05:26.725Z,90.40
2018-02-03T07:07:55.153Z,90.40
2018-02-03T07:10:23.434Z,90.20
2018-02-03T07:12:51.812Z,90.10
2018-02-03T07:15:20.192Z,90.20
2018-02-03T07:17:48.588Z,90.10
2018-02-03T07:20:16.891Z,90.30
2018-02-03T07:22:45.116Z,90.30
2018-02-03T07:25:13.329Z,90.20
2018-02-03T07:27:42.493Z,89.90
2018-02-03T07:30:10.684Z,89.90
2018-02-03T07:32:38.900Z,89.60
2018-02-03T07:35:07.432Z,89.80
2018-02-03T07:37:35.681Z,89.60
2018-02-03T07:40:04.646Z,89.30
2018-02-03T07:42:32.896Z,89.30
2018-02-03T07:45:01.121Z,88.80
2018-02-03T07:47:30.257Z,89.30
2018-02-03T07:49:58.457Z,89.30
2018-02-03T07:52:27.140Z,89.20
2018-02-03T07:54:55.483Z,88.20
2018-02-03T07:57:23.956Z,88.40
2018-02-03T07:59:52.490Z,88.10
2018-02-03T08:02:20.720Z,88.00
2018-02-03T08:04:49.724Z,88.00
2018-02-03T08:07:17.940Z,87.90
2018-02-03T08:09:46.202Z,88.20
2018-02-03T08:12:14.432Z,87.70
2018-02-03T08:14:43.505Z,87.90
2018-02-03T08:17:11.752Z,87.60
2018-02-03T08:19:40.028Z,88.40
2018-02-03T08:22:08.245Z,87.70
2018-02-03T08:24:36.429Z,86.80
2018-02-03T08:27:05.460Z,85.70
2018-02-03T08:29:34.413Z,86.60
2018-02-03T08:32:02.639Z,86.60
2018-02-03T08:34:30.962Z,86.20
2018-02-03T08:36:59.592Z,86.50
2018-02-03T08:39:28.714Z,85.80
2018-02-03T08:41:57.014Z,85.80
2018-02-03T08:44:25.199Z,86.60
2018-02-03T08:46:53.421Z,85.70
2018-02-03T08:49:22.441Z,83.40
2018-02-03T08:51:51.403Z,83.30
2018-02-03T08:54:20.374Z,84.60
2018-02-03T08:56:48.640Z,84.40
2018-02-03T08:59:16.930Z,83.20
2018-02-03T09:01:45.188Z,83.90
2018-02-03T09:04:13.432Z,82.40
2018-02-03T09:06:41.759Z,81.50
2018-02-03T09:09:10.017Z,81.60
2018-02-03T09:11:38.248Z,81.70
2018-02-03T09:14:06.721Z,80.00
2018-02-03T09:16:34.909Z,80.00
2018-02-03T09:19:03.240Z,79.50
2018-02-03T09:21:31.512Z,76.30
2018-02-03T09:23:59.732Z,76.50
2018-02-03T09:26:28.052Z,76.10
2018-02-03T09:28:56.344Z,75.90
2018-02-03T09:31:24.550Z,77.60
2018-02-03T09:33:53.546Z,79.30
2018-02-03T09:36:22.587Z,79.80
2018-02-03T09:38:51.233Z,79.90
2018-02-03T09:41:19.564Z,79.40
2018-02-03T09:43:47.785Z,79.70
2018-02-03T09:46:17.125Z,79.00
2018-02-03T09:48:45.384Z,79.00
2018-02-03T09:51:14.393Z,76.70
2018-02-03T09:53:42.738Z,76.70
2018-02-03T09:56:11.838Z,76.00
2018-02-03T09:58:40.024Z,76.00
2018-02-03T10:01:08.988Z,75.70
2018-02-03T10:03:37.282Z,75.70
2018-02-03T10:06:05.534Z,75.50
2018-02-03T10:08:33.740Z,76.00
2018-02-03T10:11:02.787Z,75.20
2018-02-03T10:13:31.017Z,75.20
2018-02-03T10:16:00.000Z,75.30
2018-02-03T10:18:29.004Z,72.30
2018-02-03T10:20:58.054Z,68.60
2018-02-03T10:23:26.275Z,68.50
2018-02-03T10:25:55.384Z,67.70
2018-02-03T10:28:23.650Z,67.60
2018-02-03T10:30:53.618Z,70.50
2018-02-03T10:33:21.880Z,70.60
2018-02-03T10:35:50.102Z,73.20
2018-02-03T10:38:18.376Z,68.70
2018-02-03T10:40:46.636Z,63.60
2018-02-03T10:43:14.835Z,64.40
2018-02-03T10:45:43.101Z,66.30
2018-02-03T10:48:12.079Z,67.10
2018-02-03T10:50:40.352Z,67.10
2018-02-03T10:53:08.556Z,67.90
2018-02-03T10:55:37.004Z,67.30
2018-02-03T10:58:05.216Z,65.80
2018-02-03T11:00:39.110Z,66.20
2018-02-03T11:03:08.152Z,65.50
2018-02-03T11:05:36.359Z,65.40
2018-02-03T11:08:04.610Z,66.40
2018-02-03T11:10:32.796Z,67.60
2018-02-03T11:13:01.068Z,69.90
2018-02-03T11:15:29.568Z,68.90
2018-02-03T11:17:57.990Z,68.20
2018-02-03T11:20:26.163Z,68.10
2018-02-03T11:22:55.819Z,68.40
2018-02-03T11:25:24.010Z,69.80
2018-02-03T11:27:52.322Z,71.00
2018-02-03T11:30:20.581Z,70.30
2018-02-03T11:32:48.780Z,70.00
2018-02-03T11:35:17.112Z,69.60
2018-02-03T11:37:45.494Z,70.00
2018-02-03T11:40:13.690Z,70.40
2018-02-03T11:42:41.976Z,72.80
2018-02-03T11:45:10.303Z,73.70
2018-02-03T11:47:39.320Z,73.20
2018-02-03T11:50:07.666Z,73.10
2018-02-03T11:52:36.694Z,74.30
2018-02-03T11:55:09.760Z,74.30
2018-02-03T11:57:38.814Z,77.10
2018-02-03T12:00:07.024Z,77.10
2018-02-03T12:02:36.020Z,81.50
2018-02-03T12:05:05.484Z,83.40
2018-02-03T12:07:33.811Z,83.40
2018-02-03T12:10:02.843Z,86.30
2018-02-03T12:12:31.064Z,86.30
2018-02-03T12:14:59.297Z,85.50
2018-02-03T12:17:27.529Z,80.90
2018-02-03T12:19:56.837Z,78.10
2018-02-03T12:22:25.808Z,77.90
2018-02-03T12:24:54.084Z,77.90
2018-02-03T12:29:55.060Z,78.30
2018-02-03T12:32:24.044Z,77.50
2018-02-03T12:34:53.036Z,78.00
2018-02-03T12:37:22.044Z,74.60
2018-02-03T12:39:51.005Z,73.50
2018-02-03T12:42:19.248Z,73.50
2018-02-03T12:44:47.740Z,72.30
2018-02-03T12:47:15.907Z,70.70
2018-02-03T12:49:44.116Z,71.30
2018-02-03T12:52:12.352Z,73.30
2018-02-03T12:54:40.576Z,73.60
2018-02-03T12:57:08.778Z,73.70
2018-02-03T12:59:37.080Z,73.10
2018-02-03T13:02:05.392Z,73.00
2018-02-03T13:04:35.304Z,71.70
2018-02-03T13:07:03.525Z,71.60
2018-02-03T13:09:31.720Z,71.50
2018-02-03T13:11:59.941Z,69.00
2018-02-03T13:14:28.192Z,68.20
2018-02-03T13:16:56.416Z,68.30
2018-02-03T13:19:24.688Z,68.70
2018-02-03T13:21:52.995Z,64.90
2018-02-03T13:24:21.272Z,67.60
2018-02-03T13:26:49.577Z,65.30
2018-02-03T13:29:17.809Z,66.30
2018-02-03T13:31:46.094Z,65.60
2018-02-03T13:34:14.378Z,63.50
2018-02-03T13:39:18.809Z,64.40
2018-02-03T13:41:47.049Z,66.60
2018-02-03T13:44:15.228Z,63.80
2018-02-03T13:46:44.228Z,63.20
2018-02-03T13:49:13.199Z,64.10
2018-02-03T13:51:41.451Z,64.20
2018-02-03T13:54:10.902Z,66.20
2018-02-03T13:56:40.672Z,64.70
2018-02-03T13:59:10.393Z,67.30
2018-02-03T14:01:38.663Z,67.40
2018-02-03T14:04:06.864Z,65.40
2018-02-03T14:06:35.128Z,66.60
2018-02-03T14:09:04.849Z,64.20
2018-02-03T14:11:33.885Z,64.10
2018-02-03T14:14:02.142Z,64.00
2018-02-03T14:16:30.453Z,63.30
2018-02-03T14:18:58.676Z,63.10
2018-02-03T14:21:27.668Z,63.80
2018-02-03T14:24:02.357Z,63.90
2018-02-03T14:26:30.561Z,63.90
2018-02-03T14:28:58.956Z,66.40
2018-02-03T14:31:27.277Z,66.80
2018-02-03T14:33:55.485Z,66.20
2018-02-03T14:36:23.680Z,67.70
2018-02-03T14:38:52.680Z,68.50
2018-02-03T14:41:20.893Z,68.60
2018-02-03T14:43:49.292Z,68.50
2018-02-03T14:46:17.631Z,68.20
2018-02-03T14:48:45.841Z,68.80
2018-02-03T14:51:14.092Z,68.60
2018-02-03T14:53:43.356Z,68.50
2018-02-03T14:56:12.633Z,70.90
2018-02-03T14:58:40.793Z,71.00
2018-02-03T15:01:09.039Z,72.90
2018-02-03T15:03:37.376Z,73.90
2018-02-03T15:06:05.580Z,74.40
2018-02-03T15:08:34.596Z,77.60
2018-02-03T15:11:02.819Z,77.60
2018-02-03T15:13:31.060Z,76.00
2018-02-03T15:15:59.307Z,78.20
2018-02-03T15:18:28.312Z,84.10
2018-02-03T15:20:56.509Z,84.20
2018-02-03T15:23:24.739Z,85.50
2018-02-03T15:25:53.715Z,86.00
2018-02-03T15:28:21.921Z,86.00
2018-02-03T15:30:52.128Z,86.50
2018-02-03T15:33:21.118Z,86.00
2018-02-03T15:35:50.248Z,86.70
2018-02-03T15:38:18.471Z,86.60
2018-02-03T15:40:46.685Z,87.30
2018-02-03T15:43:14.880Z,85.40
2018-02-03T15:45:43.916Z,85.70
2018-02-03T15:48:12.140Z,85.70
2018-02-03T15:50:40.411Z,84.30
2018-02-03T15:53:08.629Z,84.70
2018-02-03T15:55:36.848Z,83.70
2018-02-03T15:58:05.283Z,84.70
2018-02-03T16:00:33.535Z,85.20
2018-02-03T16:03:01.740Z,87.00
2018-02-03T16:05:30.398Z,87.10
2018-02-03T16:07:59.065Z,86.10
2018-02-03T16:10:27.371Z,85.00
2018-02-03T16:12:55.610Z,85.60
2018-02-03T16:15:23.984Z,86.20
2018-02-03T16:17:52.376Z,84.80
2018-02-03T16:20:21.364Z,84.10
2018-02-03T16:22:49.603Z,84.00
2018-02-03T16:25:17.800Z,84.40
2018-02-03T16:27:46.005Z,84.90
2018-02-03T16:30:14.212Z,86.20
2018-02-03T16:32:44.417Z,86.00
2018-02-03T16:35:12.621Z,85.80
2018-02-03T16:37:40.944Z,84.50
2018-02-03T16:40:09.141Z,85.70
2018-02-03T16:42:37.384Z,85.40
2018-02-03T16:45:05.622Z,86.70
2018-02-03T16:47:34.584Z,86.90
2018-02-03T16:50:02.791Z,86.80
2018-02-03T16:52:31.799Z,85.90
2018-02-03T16:55:00.009Z,85.90
2018-02-03T16:57:28.208Z,86.50
2018-02-03T16:59:56.475Z,87.60
2018-02-03T17:02:24.713Z,87.80
2018-02-03T17:04:53.102Z,87.30
2018-02-03T17:07:22.187Z,87.30
2018-02-03T17:09:50.383Z,87.30
2018-02-03T17:12:18.608Z,87.00
2018-02-03T17:14:46.876Z,88.50
2018-02-03T17:17:15.872Z,88.70
2018-02-03T17:19:44.076Z,88.80
2018-02-03T17:22:13.124Z,89.00
2018-02-03T17:24:42.291Z,88.90
2018-02-03T17:27:10.484Z,88.40
2018-02-03T17:29:38.716Z,88.80
2018-02-03T17:32:07.716Z,88.90
2018-02-03T17:34:36.834Z,89.70
2018-02-03T17:37:10.769Z,89.60
2018-02-03T17:39:39.120Z,89.70
2018-02-03T17:42:07.497Z,89.80
2018-02-03T17:44:35.819Z,89.80
2018-02-03T17:47:05.624Z,90.10
2018-02-03T17:49:33.859Z,90.20
2018-02-03T17:52:02.136Z,90.00
2018-02-03T17:54:31.104Z,90.00
2018-02-03T17:57:05.827Z,90.20
2018-02-03T17:59:34.029Z,90.10
2018-02-03T18:02:02.276Z,90.20
2018-02-03T18:04:30.564Z,90.40
2018-02-03T18:07:05.588Z,90.40
2018-02-03T18:09:33.826Z,90.40
2018-02-03T18:12:02.028Z,90.40
2018-02-03T18:14:30.308Z,90.30
2018-02-03T18:16:58.696Z,90.20
2018-02-03T18:19:26.981Z,90.00
2018-02-03T18:21:56.040Z,90.10
2018-02-03T18:24:24.336Z,90.00
2018-02-03T18:26:52.666Z,90.20
2018-02-03T18:29:21.602Z,90.00
2018-02-03T18:31:49.964Z,90.00
2018-02-03T18:34:18.165Z,90.30
2018-02-03T18:36:46.448Z,90.30
2018-02-03T18:39:15.433Z,90.00
2018-02-03T18:41:43.638Z,90.00
2018-02-03T18:44:12.216Z,90.10
2018-02-03T18:46:40.469Z,90.20
2018-02-03T18:49:08.666Z,90.30
2018-02-03T18:51:37.651Z,90.30
2018-02-03T18:54:06.717Z,90.20
2018-02-03T18:56:35.073Z,90.20
2018-02-03T18:59:03.337Z,90.20
2018-02-03T19:01:31.585Z,90.30
2018-02-03T19:04:00.565Z,90.00
2018-02-03T19:06:29.537Z,89.70
2018-02-03T19:08:57.816Z,89.70
2018-02-03T19:11:26.066Z,89.80
2018-02-03T19:13:54.344Z,89.20
2018-02-03T19:16:22.645Z,89.00
2018-02-03T19:18:50.860Z,88.60
2018-02-03T19:21:19.068Z,88.70
2018-02-03T19:23:47.349Z,89.20
2018-02-03T19:26:15.637Z,89.10
2018-02-03T19:28:43.869Z,89.00
2018-02-03T19:31:12.168Z,88.90
2018-02-03T19:33:40.368Z,89.10
2018-02-03T19:36:08.639Z,89.40
2018-02-03T19:38:36.893Z,89.00
2018-02-03T19:41:05.116Z,88.80
2018-02-03T19:43:34.095Z,88.80
2018-02-03T19:46:02.358Z,88.80
2018-02-03T19:48:30.592Z,89.00
2018-02-03T19:50:58.810Z,88.80
2018-02-03T19:53:27.060Z,89.00
2018-02-03T19:55:55.285Z,89.00
2018-02-03T19:58:23.497Z,89.20
2018-02-03T20:00:51.725Z,89.20
2018-02-03T20:03:20.103Z,89.20
2018-02-03T20:05:48.322Z,89.50
2018-02-03T20:08:16.559Z,89.60
2018-02-03T20:10:45.011Z,89.80
2018-02-03T20:13:13.196Z,89.20
2018-02-03T20:15:41.537Z,89.40
2018-02-03T20:18:09.777Z,89.60
2018-02-03T20:20:38.919Z,89.80
2018-02-03T20:23:07.170Z,89.80
2018-02-03T20:25:35.392Z,89.40
2018-02-03T20:28:04.106Z,89.60
2018-02-03T20:30:33.533Z,89.90
2018-02-03T20:33:01.752Z,89.50
2018-02-03T20:35:29.985Z,89.70
2018-02-03T20:37:58.433Z,89.60
2018-02-03T20:40:28.634Z,89.80
2018-02-03T20:42:56.912Z,89.80
2018-02-03T20:45:25.181Z,89.50
2018-02-03T20:47:53.452Z,89.60
2018-02-03T20:50:21.764Z,90.00
2018-02-03T20:52:50.799Z,89.80
2018-02-03T20:55:19.004Z,89.70
2018-02-03T20:57:47.282Z,89.80
2018-02-03T21:00:16.578Z,90.10
2018-02-03T21:02:44.907Z,90.10
2018-02-03T21:05:13.130Z,90.00
2018-02-03T21:07:41.388Z,89.50
2018-02-03T21:10:09.667Z,88.40
2018-02-03T21:12:38.680Z,88.50
2018-02-03T21:15:07.166Z,88.50
2018-02-03T21:17:35.376Z,88.50
2018-02-03T21:20:04.412Z,88.00
2018-02-03T21:25:01.750Z,87.50
2018-02-03T21:27:30.879Z,88.50
2018-02-03T21:29:59.180Z,88.40
2018-02-03T21:32:27.428Z,88.80
2018-02-03T21:34:55.641Z,88.30
2018-02-03T21:37:23.876Z,87.80
2018-02-03T21:39:52.185Z,87.70
2018-02-03T21:42:20.452Z,88.50
2018-02-03T21:44:48.658Z,88.60
2018-02-03T21:47:17.086Z,87.70
2018-02-03T21:49:45.360Z,89.10
2018-02-03T21:52:14.318Z,89.40
2018-02-03T21:54:43.379Z,89.40
2018-02-03T21:57:11.664Z,89.30
2018-02-03T21:59:39.860Z,89.60
2018-02-03T22:02:08.140Z,89.40
2018-02-03T22:04:37.148Z,87.90
2018-02-03T22:07:06.122Z,88.40
2018-02-03T22:09:36.088Z,88.50
2018-02-03T22:12:04.686Z,88.60
2018-02-03T22:14:32.948Z,88.70
2018-02-03T22:17:01.230Z,88.80
2018-02-03T22:19:29.466Z,89.20
2018-02-03T22:21:58.451Z,89.70
2018-02-03T22:24:26.928Z,89.70
2018-02-03T22:26:55.198Z,89.50
2018-02-03T22:29:23.424Z,88.60
2018-02-03T22:31:51.753Z,88.00
2018-02-03T22:34:19.974Z,87.90
2018-02-03T22:36:48.236Z,88.20
2018-02-03T22:39:17.232Z,89.10
2018-02-03T22:41:45.540Z,89.10
2018-02-03T22:44:14.022Z,89.50
2018-02-03T22:46:42.248Z,89.40
2018-02-03T22:49:11.248Z,89.50
2018-02-03T22:51:40.224Z,89.60
2018-02-03T22:54:08.494Z,89.60
2018-02-03T22:56:36.715Z,89.60
2018-02-03T22:59:04.968Z,89.80
2018-02-03T23:01:35.073Z,90.00
2018-02-03T23:04:03.241Z,90.00
2018-02-03T23:06:31.515Z,90.30
2018-02-03T23:08:59.893Z,89.70
2018-02-03T23:11:28.112Z,89.60
2018-02-03T23:13:57.131Z,89.50
2018-02-03T23:16:25.439Z,89.50
2018-02-03T23:18:53.676Z,89.40
2018-02-03T23:21:21.931Z,90.30
2018-02-03T23:23:51.028Z,90.20
2018-02-03T23:26:20.732Z,90.00
2018-02-03T23:28:48.947Z,90.00
2018-02-03T23:31:17.405Z,89.50
2018-02-03T23:33:45.726Z,89.20
2018-02-03T23:36:13.950Z,89.80
2018-02-03T23:38:42.306Z,90.00
2018-02-03T23:41:10.530Z,90.00
2018-02-03T23:43:38.985Z,90.30
2018-02-03T23:46:07.471Z,90.30
2018-02-03T23:48:35.671Z,90.50
2018-02-03T23:51:04.036Z,90.30
2018-02-03T23:53:32.306Z,90.30
2018-02-03T23:56:00.932Z,90.30
2018-02-03T23:58:29.157Z,90.30
